Flight Track Log - Related Links

Times and Time Zones

All times are in EDT time to prevent confusion due to time zone crossing. See the N73406 flight status page for this flight to view local times or setup timezone preferences in your user account.


Time Position Orientation Groundspeed Altitude Reporting Facility
EDT Latitude Longitude Course Direction KTS MPH feet Rate Location/Type
Fri 08:23:32 PM 29.9834 -95.2742 245° Southwest  Level FlightAware Approximate
Fri 08:23:52 PM 29.9561 -95.3431 91° East 171 197 700  Level Houston Center
Fri 08:28:27 PM 29.9508 -94.9858 82° East 276 318 9,300 1,849 Climbing Houston Center
Fri 08:28:57 PM 29.9561 -94.9406 85° East 286 329 10,100 1,685 Climbing Houston Center
Fri 08:29:56 PM 29.9622 -94.8544 85° East 305 351 11,800 1,916 Climbing Houston Center
Fri 08:30:56 PM 29.9711 -94.7419 84° East 324 373 13,900 2,150 Climbing Houston Center
Fri 08:31:56 PM 29.9819 -94.6247 86° East 349 402 16,100 1,950 Climbing Houston Center
Fri 08:32:56 PM 29.9889 -94.5003 88° East 369 425 17,800 1,900 Climbing Houston Center
Fri 08:33:56 PM 29.9936 -94.3639 85° East 382 440 19,900 1,850 Climbing Houston Center
Fri 08:34:56 PM 30.0047 -94.2250 82° East 405 466 21,500 1,700 Climbing Houston Center
Fri 08:35:56 PM 30.0219 -94.0886 82° East 424 488 23,300 1,750 Climbing Houston Center
Fri 08:36:56 PM 30.0389 -93.9500 82° East 430 495 25,000 1,550 Climbing Houston Center
Fri 08:37:56 PM 30.0558 -93.8089 83° East 435 501 26,400 1,000 Climbing Houston Center
Fri 08:38:56 PM 30.0706 -93.6747 82° East 452 520 27,000 250 Climbing Houston Center
Fri 08:39:56 PM 30.0892 -93.5286 82° East 452 520 26,900 -50 Descending Houston Center
Fri 08:40:56 PM 30.1058 -93.3850 82° East 457 526 26,900 100 Level Houston Center
Fri 08:41:56 PM 30.1242 -93.2389 82° East 457 526 27,100 650 Climbing Houston Center
Fri 08:42:56 PM 30.1425 -93.0900 76° East 457 526 28,200 1,200 Climbing Houston Center
Fri 08:43:56 PM 30.1733 -92.9417 77° East 469 540 29,500 1,350 Climbing Houston Center
Fri 08:44:56 PM 30.2039 -92.7931 78° East 469 540 30,900 1,400 Climbing Houston Center
Fri 08:45:56 PM 30.2322 -92.6442 77° East 469 540 32,300 1,050 Climbing Houston Center
Fri 08:46:56 PM 30.2603 -92.4978 78° East 469 540 33,000 300 Climbing Houston Center
Fri 08:47:56 PM 30.2883 -92.3489 79° East 469 540 32,900  Descending Houston Center
Fri 08:48:56 PM 30.3139 -92.2000 77° East 469 540 33,000 50 Climbing Houston Center
Fri 08:49:56 PM 30.3417 -92.0558 78° East 469 540 33,000  Level Houston Center
Fri 08:50:56 PM 30.3692 -91.9089 77° East 469 540 33,000  Level Houston Center
Fri 08:51:56 PM 30.3986 -91.7575 77° East 469 540 33,000  Level Houston Center
Fri 08:52:56 PM 30.4278 -91.6153 78° East 469 540 33,000  Level Houston Center
Fri 08:53:56 PM 30.4547 -91.4658 78° East 469 540 33,000  Level Houston Center
Fri 08:54:56 PM 30.4817 -91.3189 75° East 469 540 33,000  Level Houston Center
Fri 08:55:56 PM 30.5144 -91.1717 76° East 469 540 33,000  Level Houston Center
Fri 08:56:58 PM 30.5453 -91.0244 74° East 469 540 33,000  Level Houston Center
Fri 08:58:08 PM 30.5881 -90.8456 77° East 469 540 33,000  Level Houston Center
Fri 08:59:08 PM 30.6183 -90.6983 68° East 469 540 33,000  Level Houston Center
Fri 09:00:08 PM 30.6675 -90.5578 71° East 469 540 33,000 550 Level Houston Center
Fri 09:01:08 PM 30.7100 -90.4147 69° East 464 534 34,100 1,000 Climbing Houston Center
Fri 09:02:08 PM 30.7547 -90.2764 70° East 459 528 35,000 450 Climbing Houston Center
Fri 09:03:08 PM 30.7989 -90.1358 70° East 459 528 35,000 -50 Level Houston Center
Fri 09:04:08 PM 30.8433 -89.9947 70° East 459 528 34,900  Descending Houston Center
Fri 09:05:08 PM 30.8872 -89.8514 72° East 464 534 35,000 50 Climbing Houston Center
Fri 09:06:08 PM 30.9269 -89.7103 69° East 464 534 35,000  Level Houston Center
Fri 09:07:08 PM 30.9731 -89.5664 71° East 464 534 35,000  Level Houston Center
Fri 09:08:08 PM 31.0144 -89.4228 70° East 464 534 35,000 -50 Level Houston Center
Fri 09:09:08 PM 31.0581 -89.2836 71° East 464 534 34,900  Descending Houston Center
Fri 09:10:08 PM 31.1031 -89.1322 71° East 464 534 35,000  Climbing Houston Center
Fri 09:11:08 PM 31.1464 -88.9881 71° East 458 527 34,900  Descending Houston Center
Fri 09:12:08 PM 31.1853 -88.8536 71° East 453 521 35,000 50 Climbing Houston Center
Fri 09:13:08 PM 31.2261 -88.7139 69° East 448 516 35,000  Level Houston Center
Fri 09:14:08 PM 31.2711 -88.5767 71° East 448 516 35,000  Level Houston Center
Fri 09:15:08 PM 31.3117 -88.4369 72° East 448 516 35,000  Level Houston Center
Fri 09:16:08 PM 31.3442 -88.3217 70° East 453 521 35,000  Level Houston Center
Fri 09:17:20 PM 31.3989 -88.1403 60° Northeast 456 525 35,000  Level Atlanta Center
Fri 09:18:20 PM 31.4614 -88.0142 55° Northeast 451 519 35,000  Level Atlanta Center
Fri 09:19:20 PM 31.5297 -87.8978 55° Northeast 441 507 35,000  Level Atlanta Center
Fri 09:20:20 PM 31.6025 -87.7767 55° Northeast 441 507 35,000  Level Atlanta Center
Fri 09:21:20 PM 31.6728 -87.6575 55° Northeast 441 507 35,000  Level Atlanta Center
Fri 09:22:20 PM 31.7453 -87.5358 57° Northeast 441 507 35,000  Level Atlanta Center
Fri 09:23:20 PM 31.8133 -87.4114 57° Northeast 446 513 35,000  Level Atlanta Center
Fri 09:24:20 PM 31.8814 -87.2892 56° Northeast 446 513 35,000  Level Atlanta Center
Fri 09:25:20 PM 31.9492 -87.1694 56° Northeast 436 502 35,000  Level Atlanta Center
Fri 09:26:20 PM 32.0189 -87.0492 55° Northeast 436 502 35,000  Level Atlanta Center
Fri 09:27:20 PM 32.0972 -86.9172 57° Northeast 436 502 35,000  Level Atlanta Center
Fri 09:28:20 PM 32.1625 -86.7989 54° Northeast 436 502 35,000  Level Atlanta Center
Fri 09:29:20 PM 32.2275 -86.6931 55° Northeast 430 495 35,000  Level Atlanta Center
Fri 09:30:20 PM 32.2967 -86.5747 54° Northeast 437 503 35,000  Level Atlanta Center
Fri 09:31:20 PM 32.3678 -86.4586 62° Northeast 437 503 35,000  Level Atlanta Center
Fri 09:32:20 PM 32.4247 -86.3297 57° Northeast 429 494 35,000 -150 Level Atlanta Center
Fri 09:33:20 PM 32.4894 -86.2108 54° Northeast 429 494 34,700 -1,550 Descending Atlanta Center
Fri 09:34:20 PM 32.5667 -86.0844 55° Northeast 448 516 31,900 -2,600 Descending Atlanta Center
Fri 09:35:20 PM 32.6353 -85.9678 55° Northeast 443 510 29,500 -2,300 Descending Atlanta Center
Fri 09:36:20 PM 32.7017 -85.8556 54° Northeast 418 481 27,300 -2,150 Descending Atlanta Center
Fri 09:37:20 PM 32.7722 -85.7386 56° Northeast 404 465 25,200 -2,050 Descending Atlanta Center
Fri 09:38:20 PM 32.8342 -85.6308 56° Northeast 392 451 23,200 -2,000 Descending Atlanta Center
Fri 09:39:20 PM 32.8919 -85.5306 55° Northeast 381 438 21,200 -2,000 Descending Atlanta Center
Fri 09:40:20 PM 32.9514 -85.4275 55° Northeast 381 438 19,200 -1,950 Descending Atlanta Center
Fri 09:41:20 PM 33.0111 -85.3269 55° Northeast 380 437 17,300 -2,000 Descending Atlanta Center
Fri 09:42:20 PM 33.0683 -85.2311 54° Northeast 366 421 15,200 -2,000 Descending Atlanta Center
Fri 09:43:20 PM 33.1214 -85.1425 56° Northeast 340 391 13,300 -1,500 Descending Atlanta Center
Fri 09:44:20 PM 33.1681 -85.0589 51° Northeast 334 384 12,200 -900 Descending Atlanta Center
Fri 09:45:20 PM 33.2167 -84.9872 48° Northeast 301 346 11,500 -1,150 Descending Atlanta Center
Fri 09:46:20 PM 33.2692 -84.9183 48° Northeast 278 320 9,900 -1,700 Descending Atlanta Center
Fri 09:47:20 PM 33.3197 -84.8517 44° Northeast 271 312 8,100 -1,250 Descending Atlanta Center
Fri 09:48:20 PM 33.3786 -84.7828 North 271 312 7,400 -1,050 Descending Atlanta Center
Fri 09:49:20 PM 33.4581 -84.7708 North 278 320 6,000 -1,200 Descending Atlanta Center
Fri 09:50:20 PM 33.5311 -84.7589 North 272 313 5,000 -800 Descending Atlanta Center
Fri 09:51:20 PM 33.6022 -84.7472 56° Northeast 246 283 4,400 -750 Descending Atlanta Center
Fri 09:52:20 PM 33.6317 -84.6950 56° Northeast 190 219 3,500 -900 Descending Atlanta Center

Login

Don't have an account? Register now (free) for customized features, flight alerts, and more!